sensor_id;sensor_type;location;lat;lon;timestamp;P1;durP1;ratioP1;P2;durP2;ratioP2
7045;SDS011;3564;53.326;10.356;2024-03-17T00:01:49;8.03;;;2.80;;
7045;SDS011;3564;53.326;10.356;2024-03-17T00:04:15;5.83;;;2.57;;
7045;SDS011;3564;53.326;10.356;2024-03-17T00:06:40;13.87;;;3.33;;
7045;SDS011;3564;53.326;10.356;2024-03-17T00:09:06;12.97;;;3.07;;
7045;SDS011;3564;53.326;10.356;2024-03-17T00:11:34;13.63;;;2.80;;
7045;SDS011;3564;53.326;10.356;2024-03-17T00:14:02;12.57;;;2.73;;
7045;SDS011;3564;53.326;10.356;2024-03-17T00:16:28;13.43;;;3.00;;
7045;SDS011;3564;53.326;10.356;2024-03-17T00:18:54;13.00;;;3.27;;
7045;SDS011;3564;53.326;10.356;2024-03-17T00:21:21;11.93;;;3.57;;
7045;SDS011;3564;53.326;10.356;2024-03-17T00:23:47;12.27;;;3.33;;
7045;SDS011;3564;53.326;10.356;2024-03-17T00:26:15;15.10;;;3.20;;
7045;SDS011;3564;53.326;10.356;2024-03-17T00:28:41;12.00;;;3.23;;
7045;SDS011;3564;53.326;10.356;2024-03-17T00:31:07;12.17;;;2.73;;
7045;SDS011;3564;53.326;10.356;2024-03-17T00:33:35;10.57;;;3.53;;
7045;SDS011;3564;53.326;10.356;2024-03-17T00:36:00;9.47;;;3.33;;
7045;SDS011;3564;53.326;10.356;2024-03-17T00:38:27;10.60;;;3.00;;
7045;SDS011;3564;53.326;10.356;2024-03-17T00:40:54;18.63;;;3.83;;
7045;SDS011;3564;53.326;10.356;2024-03-17T00:43:19;9.93;;;2.77;;
7045;SDS011;3564;53.326;10.356;2024-03-17T00:45:51;14.20;;;3.57;;
7045;SDS011;3564;53.326;10.356;2024-03-17T00:48:18;12.23;;;3.23;;
7045;SDS011;3564;53.326;10.356;2024-03-17T00:50:44;13.50;;;3.40;;
7045;SDS011;3564;53.326;10.356;2024-03-17T00:53:12;15.83;;;2.90;;
7045;SDS011;3564;53.326;10.356;2024-03-17T00:55:38;10.27;;;3.10;;
7045;SDS011;3564;53.326;10.356;2024-03-17T00:58:04;9.43;;;2.83;;
7045;SDS011;3564;53.326;10.356;2024-03-17T01:00:30;15.20;;;3.33;;
7045;SDS011;3564;53.326;10.356;2024-03-17T01:02:58;7.73;;;2.50;;
7045;SDS011;3564;53.326;10.356;2024-03-17T01:05:24;16.77;;;3.37;;
7045;SDS011;3564;53.326;10.356;2024-03-17T01:07:49;8.63;;;3.03;;
7045;SDS011;3564;53.326;10.356;2024-03-17T01:10:15;10.27;;;2.93;;
7045;SDS011;3564;53.326;10.356;2024-03-17T01:12:41;12.43;;;2.80;;
7045;SDS011;3564;53.326;10.356;2024-03-17T01:15:07;12.20;;;3.50;;
7045;SDS011;3564;53.326;10.356;2024-03-17T01:17:33;10.77;;;3.53;;
7045;SDS011;3564;53.326;10.356;2024-03-17T01:19:59;13.17;;;3.03;;
7045;SDS011;3564;53.326;10.356;2024-03-17T01:22:24;15.83;;;3.17;;
7045;SDS011;3564;53.326;10.356;2024-03-17T01:24:50;8.17;;;3.00;;
7045;SDS011;3564;53.326;10.356;2024-03-17T01:27:15;7.80;;;2.43;;
7045;SDS011;3564;53.326;10.356;2024-03-17T01:29:42;15.30;;;3.27;;
7045;SDS011;3564;53.326;10.356;2024-03-17T01:32:08;8.50;;;2.73;;
7045;SDS011;3564;53.326;10.356;2024-03-17T01:34:39;9.80;;;2.50;;
7045;SDS011;3564;53.326;10.356;2024-03-17T01:37:04;9.93;;;3.03;;
7045;SDS011;3564;53.326;10.356;2024-03-17T01:39:30;13.03;;;3.20;;
7045;SDS011;3564;53.326;10.356;2024-03-17T01:41:57;14.63;;;3.60;;
7045;SDS011;3564;53.326;10.356;2024-03-17T01:44:24;14.67;;;3.80;;
7045;SDS011;3564;53.326;10.356;2024-03-17T01:47:00;8.87;;;2.93;;
7045;SDS011;3564;53.326;10.356;2024-03-17T01:49:25;10.10;;;3.43;;
7045;SDS011;3564;53.326;10.356;2024-03-17T01:51:51;11.37;;;2.87;;
7045;SDS011;3564;53.326;10.356;2024-03-17T01:54:18;7.67;;;3.07;;
7045;SDS011;3564;53.326;10.356;2024-03-17T01:56:44;14.00;;;3.27;;
7045;SDS011;3564;53.326;10.356;2024-03-17T01:59:10;12.63;;;3.50;;
7045;SDS011;3564;53.326;10.356;2024-03-17T02:01:36;12.97;;;3.13;;
7045;SDS011;3564;53.326;10.356;2024-03-17T02:04:05;10.27;;;3.00;;
7045;SDS011;3564;53.326;10.356;2024-03-17T02:06:31;9.07;;;2.57;;
7045;SDS011;3564;53.326;10.356;2024-03-17T02:08:57;11.23;;;2.80;;
7045;SDS011;3564;53.326;10.356;2024-03-17T02:11:27;11.03;;;3.00;;
7045;SDS011;3564;53.326;10.356;2024-03-17T02:13:57;12.83;;;2.40;;
7045;SDS011;3564;53.326;10.356;2024-03-17T02:16:26;15.13;;;3.40;;
7045;SDS011;3564;53.326;10.356;2024-03-17T02:18:54;10.77;;;3.20;;
7045;SDS011;3564;53.326;10.356;2024-03-17T02:21:21;13.20;;;3.03;;
7045;SDS011;3564;53.326;10.356;2024-03-17T02:23:53;10.00;;;3.83;;
7045;SDS011;3564;53.326;10.356;2024-03-17T02:26:21;11.83;;;3.20;;
7045;SDS011;3564;53.326;10.356;2024-03-17T02:28:47;10.63;;;3.20;;
7045;SDS011;3564;53.326;10.356;2024-03-17T02:31:14;9.57;;;3.17;;
7045;SDS011;3564;53.326;10.356;2024-03-17T02:33:41;10.93;;;3.20;;
7045;SDS011;3564;53.326;10.356;2024-03-17T02:36:10;17.63;;;3.73;;
7045;SDS011;3564;53.326;10.356;2024-03-17T02:38:37;10.77;;;3.63;;
7045;SDS011;3564;53.326;10.356;2024-03-17T02:41:21;9.33;;;2.53;;
7045;SDS011;3564;53.326;10.356;2024-03-17T02:43:47;11.63;;;3.07;;
7045;SDS011;3564;53.326;10.356;2024-03-17T02:46:13;11.80;;;3.33;;
7045;SDS011;3564;53.326;10.356;2024-03-17T02:48:40;12.63;;;3.43;;
7045;SDS011;3564;53.326;10.356;2024-03-17T02:51:11;14.03;;;2.80;;
7045;SDS011;3564;53.326;10.356;2024-03-17T02:53:41;13.17;;;2.93;;
7045;SDS011;3564;53.326;10.356;2024-03-17T02:56:08;12.03;;;3.63;;
7045;SDS011;3564;53.326;10.356;2024-03-17T02:58:35;12.80;;;3.40;;
7045;SDS011;3564;53.326;10.356;2024-03-17T03:01:01;13.20;;;3.47;;
7045;SDS011;3564;53.326;10.356;2024-03-17T03:03:30;10.40;;;2.40;;
7045;SDS011;3564;53.326;10.356;2024-03-17T03:05:57;10.53;;;2.70;;
7045;SDS011;3564;53.326;10.356;2024-03-17T03:08:23;16.47;;;3.37;;
7045;SDS011;3564;53.326;10.356;2024-03-17T03:10:49;12.07;;;4.00;;
7045;SDS011;3564;53.326;10.356;2024-03-17T03:13:15;15.47;;;3.23;;
7045;SDS011;3564;53.326;10.356;2024-03-17T03:15:41;12.83;;;3.43;;
7045;SDS011;3564;53.326;10.356;2024-03-17T03:18:07;12.80;;;2.83;;
7045;SDS011;3564;53.326;10.356;2024-03-17T03:20:33;20.27;;;2.83;;
7045;SDS011;3564;53.326;10.356;2024-03-17T03:22:59;12.23;;;3.50;;
7045;SDS011;3564;53.326;10.356;2024-03-17T03:25:26;11.73;;;2.70;;
7045;SDS011;3564;53.326;10.356;2024-03-17T03:27:52;9.90;;;2.90;;
7045;SDS011;3564;53.326;10.356;2024-03-17T03:30:18;16.57;;;3.33;;
7045;SDS011;3564;53.326;10.356;2024-03-17T03:32:46;14.50;;;3.43;;
7045;SDS011;3564;53.326;10.356;2024-03-17T03:35:13;13.20;;;3.40;;
7045;SDS011;3564;53.326;10.356;2024-03-17T03:37:40;8.57;;;3.20;;
7045;SDS011;3564;53.326;10.356;2024-03-17T03:40:06;9.63;;;3.70;;
7045;SDS011;3564;53.326;10.356;2024-03-17T03:42:44;15.73;;;3.50;;
7045;SDS011;3564;53.326;10.356;2024-03-17T03:45:10;13.47;;;3.13;;
7045;SDS011;3564;53.326;10.356;2024-03-17T03:47:39;12.13;;;2.93;;
7045;SDS011;3564;53.326;10.356;2024-03-17T03:50:09;17.23;;;2.77;;
7045;SDS011;3564;53.326;10.356;2024-03-17T03:52:36;9.80;;;3.30;;
7045;SDS011;3564;53.326;10.356;2024-03-17T03:55:03;9.90;;;2.67;;
7045;SDS011;3564;53.326;10.356;2024-03-17T03:57:29;8.53;;;2.63;;
7045;SDS011;3564;53.326;10.356;2024-03-17T03:59:57;6.67;;;2.40;;
7045;SDS011;3564;53.326;10.356;2024-03-17T04:02:24;12.03;;;3.13;;
7045;SDS011;3564;53.326;10.356;2024-03-17T04:04:57;13.30;;;3.40;;
7045;SDS011;3564;53.326;10.356;2024-03-17T04:07:23;10.83;;;3.00;;
7045;SDS011;3564;53.326;10.356;2024-03-17T04:09:49;10.93;;;2.87;;
7045;SDS011;3564;53.326;10.356;2024-03-17T04:12:14;11.63;;;3.23;;
7045;SDS011;3564;53.326;10.356;2024-03-17T04:14:40;11.43;;;3.10;;
7045;SDS011;3564;53.326;10.356;2024-03-17T04:17:05;9.60;;;2.70;;
7045;SDS011;3564;53.326;10.356;2024-03-17T04:19:31;11.97;;;2.90;;
7045;SDS011;3564;53.326;10.356;2024-03-17T04:21:57;11.20;;;2.80;;
7045;SDS011;3564;53.326;10.356;2024-03-17T04:24:22;8.40;;;2.63;;
7045;SDS011;3564;53.326;10.356;2024-03-17T04:26:48;12.73;;;3.63;;
7045;SDS011;3564;53.326;10.356;2024-03-17T04:29:13;15.13;;;3.10;;
7045;SDS011;3564;53.326;10.356;2024-03-17T04:31:40;7.73;;;2.70;;
7045;SDS011;3564;53.326;10.356;2024-03-17T04:34:07;13.57;;;3.37;;
7045;SDS011;3564;53.326;10.356;2024-03-17T04:36:33;9.23;;;2.53;;
7045;SDS011;3564;53.326;10.356;2024-03-17T04:38:58;7.80;;;2.87;;
7045;SDS011;3564;53.326;10.356;2024-03-17T04:41:24;13.03;;;3.00;;
7045;SDS011;3564;53.326;10.356;2024-03-17T04:43:49;14.23;;;3.10;;
7045;SDS011;3564;53.326;10.356;2024-03-17T04:46:15;6.90;;;3.00;;
7045;SDS011;3564;53.326;10.356;2024-03-17T04:48:41;5.20;;;2.37;;
7045;SDS011;3564;53.326;10.356;2024-03-17T04:51:06;16.07;;;3.40;;
7045;SDS011;3564;53.326;10.356;2024-03-17T04:53:32;9.17;;;2.47;;
7045;SDS011;3564;53.326;10.356;2024-03-17T04:56:01;12.03;;;3.03;;
7045;SDS011;3564;53.326;10.356;2024-03-17T04:58:29;9.83;;;2.60;;
7045;SDS011;3564;53.326;10.356;2024-03-17T05:01:03;9.23;;;2.80;;
7045;SDS011;3564;53.326;10.356;2024-03-17T05:03:30;10.77;;;3.00;;
7045;SDS011;3564;53.326;10.356;2024-03-17T05:06:02;13.40;;;3.43;;
7045;SDS011;3564;53.326;10.356;2024-03-17T05:08:29;11.20;;;3.60;;
7045;SDS011;3564;53.326;10.356;2024-03-17T05:10:59;9.27;;;3.37;;
7045;SDS011;3564;53.326;10.356;2024-03-17T05:13:34;11.00;;;3.10;;
7045;SDS011;3564;53.326;10.356;2024-03-17T05:16:01;10.43;;;2.97;;
7045;SDS011;3564;53.326;10.356;2024-03-17T05:18:28;11.80;;;3.43;;
7045;SDS011;3564;53.326;10.356;2024-03-17T05:21:01;13.03;;;3.20;;
7045;SDS011;3564;53.326;10.356;2024-03-17T05:23:32;6.67;;;2.60;;
7045;SDS011;3564;53.326;10.356;2024-03-17T05:25:59;13.43;;;3.17;;
7045;SDS011;3564;53.326;10.356;2024-03-17T05:28:26;11.63;;;2.83;;
7045;SDS011;3564;53.326;10.356;2024-03-17T05:30:53;6.73;;;2.50;;
7045;SDS011;3564;53.326;10.356;2024-03-17T05:33:19;9.80;;;3.20;;
7045;SDS011;3564;53.326;10.356;2024-03-17T05:35:56;10.23;;;2.60;;
7045;SDS011;3564;53.326;10.356;2024-03-17T05:38:23;13.73;;;2.70;;
7045;SDS011;3564;53.326;10.356;2024-03-17T05:41:00;9.03;;;3.13;;
7045;SDS011;3564;53.326;10.356;2024-03-17T05:43:34;9.00;;;3.20;;
7045;SDS011;3564;53.326;10.356;2024-03-17T05:46:02;11.83;;;3.20;;
7045;SDS011;3564;53.326;10.356;2024-03-17T05:48:31;7.97;;;2.67;;
7045;SDS011;3564;53.326;10.356;2024-03-17T05:51:03;9.13;;;3.30;;
7045;SDS011;3564;53.326;10.356;2024-03-17T05:53:36;9.00;;;2.93;;
7045;SDS011;3564;53.326;10.356;2024-03-17T05:56:21;8.07;;;2.67;;
7045;SDS011;3564;53.326;10.356;2024-03-17T05:58:47;6.17;;;3.27;;
7045;SDS011;3564;53.326;10.356;2024-03-17T06:01:13;7.90;;;2.83;;
7045;SDS011;3564;53.326;10.356;2024-03-17T06:03:39;9.60;;;2.93;;
7045;SDS011;3564;53.326;10.356;2024-03-17T06:06:06;10.10;;;3.00;;
7045;SDS011;3564;53.326;10.356;2024-03-17T06:08:36;9.00;;;3.27;;
7045;SDS011;3564;53.326;10.356;2024-03-17T06:11:03;11.00;;;2.97;;
7045;SDS011;3564;53.326;10.356;2024-03-17T06:13:29;10.37;;;2.77;;
7045;SDS011;3564;53.326;10.356;2024-03-17T06:15:55;11.97;;;3.77;;
7045;SDS011;3564;53.326;10.356;2024-03-17T06:18:25;7.97;;;3.43;;
7045;SDS011;3564;53.326;10.356;2024-03-17T06:20:52;12.83;;;3.20;;
7045;SDS011;3564;53.326;10.356;2024-03-17T06:23:17;9.57;;;2.80;;
7045;SDS011;3564;53.326;10.356;2024-03-17T06:25:46;8.70;;;3.13;;
7045;SDS011;3564;53.326;10.356;2024-03-17T06:28:14;11.50;;;3.00;;
7045;SDS011;3564;53.326;10.356;2024-03-17T06:33:14;7.97;;;2.80;;
7045;SDS011;3564;53.326;10.356;2024-03-17T06:35:41;14.83;;;4.07;;
7045;SDS011;3564;53.326;10.356;2024-03-17T06:38:07;13.20;;;3.30;;
7045;SDS011;3564;53.326;10.356;2024-03-17T06:40:36;10.30;;;3.03;;
7045;SDS011;3564;53.326;10.356;2024-03-17T06:43:02;12.87;;;3.80;;
7045;SDS011;3564;53.326;10.356;2024-03-17T06:45:28;11.43;;;3.40;;
7045;SDS011;3564;53.326;10.356;2024-03-17T06:47:53;10.63;;;3.17;;
7045;SDS011;3564;53.326;10.356;2024-03-17T06:50:20;7.80;;;2.77;;
7045;SDS011;3564;53.326;10.356;2024-03-17T06:52:46;7.17;;;2.90;;
7045;SDS011;3564;53.326;10.356;2024-03-17T06:55:12;11.83;;;3.63;;
7045;SDS011;3564;53.326;10.356;2024-03-17T06:57:37;7.70;;;2.90;;
7045;SDS011;3564;53.326;10.356;2024-03-17T07:00:08;10.33;;;3.43;;
7045;SDS011;3564;53.326;10.356;2024-03-17T07:02:39;8.53;;;3.03;;
7045;SDS011;3564;53.326;10.356;2024-03-17T07:05:11;12.67;;;3.10;;
7045;SDS011;3564;53.326;10.356;2024-03-17T07:07:39;8.77;;;3.27;;
7045;SDS011;3564;53.326;10.356;2024-03-17T07:10:05;7.10;;;3.23;;
7045;SDS011;3564;53.326;10.356;2024-03-17T07:12:31;10.03;;;3.10;;
7045;SDS011;3564;53.326;10.356;2024-03-17T07:14:57;9.17;;;2.73;;
7045;SDS011;3564;53.326;10.356;2024-03-17T07:17:22;8.00;;;3.40;;
7045;SDS011;3564;53.326;10.356;2024-03-17T07:19:48;10.60;;;2.97;;
7045;SDS011;3564;53.326;10.356;2024-03-17T07:22:14;9.57;;;3.07;;
7045;SDS011;3564;53.326;10.356;2024-03-17T07:24:40;7.60;;;3.50;;
7045;SDS011;3564;53.326;10.356;2024-03-17T07:27:05;7.33;;;3.33;;
7045;SDS011;3564;53.326;10.356;2024-03-17T07:29:34;9.60;;;3.00;;
7045;SDS011;3564;53.326;10.356;2024-03-17T07:31:59;12.27;;;4.20;;
7045;SDS011;3564;53.326;10.356;2024-03-17T07:34:25;8.40;;;2.83;;
7045;SDS011;3564;53.326;10.356;2024-03-17T07:36:51;7.17;;;3.60;;
7045;SDS011;3564;53.326;10.356;2024-03-17T07:39:17;8.57;;;3.63;;
7045;SDS011;3564;53.326;10.356;2024-03-17T07:41:44;8.23;;;2.90;;
7045;SDS011;3564;53.326;10.356;2024-03-17T07:44:09;12.03;;;3.40;;
7045;SDS011;3564;53.326;10.356;2024-03-17T07:46:35;7.70;;;3.33;;
7045;SDS011;3564;53.326;10.356;2024-03-17T07:49:00;7.07;;;3.27;;
7045;SDS011;3564;53.326;10.356;2024-03-17T07:51:26;6.87;;;3.20;;
7045;SDS011;3564;53.326;10.356;2024-03-17T07:53:52;10.63;;;3.43;;
7045;SDS011;3564;53.326;10.356;2024-03-17T07:56:17;9.17;;;3.27;;
7045;SDS011;3564;53.326;10.356;2024-03-17T07:58:45;7.90;;;3.13;;
7045;SDS011;3564;53.326;10.356;2024-03-17T08:01:13;12.10;;;3.30;;
7045;SDS011;3564;53.326;10.356;2024-03-17T08:03:40;14.57;;;3.27;;
7045;SDS011;3564;53.326;10.356;2024-03-17T08:06:09;8.90;;;3.90;;
7045;SDS011;3564;53.326;10.356;2024-03-17T08:08:38;7.20;;;3.17;;
7045;SDS011;3564;53.326;10.356;2024-03-17T08:11:04;11.67;;;3.20;;
7045;SDS011;3564;53.326;10.356;2024-03-17T08:13:30;8.53;;;3.20;;
7045;SDS011;3564;53.326;10.356;2024-03-17T08:16:06;10.67;;;3.33;;
7045;SDS011;3564;53.326;10.356;2024-03-17T08:18:35;7.17;;;3.03;;
7045;SDS011;3564;53.326;10.356;2024-03-17T08:21:01;6.77;;;3.50;;
7045;SDS011;3564;53.326;10.356;2024-03-17T08:23:29;10.70;;;3.00;;
7045;SDS011;3564;53.326;10.356;2024-03-17T08:25:56;9.20;;;3.03;;
7045;SDS011;3564;53.326;10.356;2024-03-17T08:28:23;5.83;;;2.90;;
7045;SDS011;3564;53.326;10.356;2024-03-17T08:30:51;6.10;;;2.70;;
7045;SDS011;3564;53.326;10.356;2024-03-17T08:33:34;10.30;;;3.40;;
7045;SDS011;3564;53.326;10.356;2024-03-17T08:36:01;8.80;;;2.70;;
7045;SDS011;3564;53.326;10.356;2024-03-17T08:38:35;6.33;;;2.30;;
7045;SDS011;3564;53.326;10.356;2024-03-17T08:41:05;6.77;;;2.33;;
7045;SDS011;3564;53.326;10.356;2024-03-17T08:43:32;8.17;;;3.10;;
7045;SDS011;3564;53.326;10.356;2024-03-17T08:48:26;10.07;;;2.70;;
7045;SDS011;3564;53.326;10.356;2024-03-17T08:50:53;9.77;;;2.83;;
7045;SDS011;3564;53.326;10.356;2024-03-17T08:53:19;5.37;;;2.63;;
7045;SDS011;3564;53.326;10.356;2024-03-17T08:55:45;17.27;;;2.87;;
7045;SDS011;3564;53.326;10.356;2024-03-17T08:58:12;8.40;;;2.73;;
7045;SDS011;3564;53.326;10.356;2024-03-17T09:00:38;13.67;;;3.13;;
7045;SDS011;3564;53.326;10.356;2024-03-17T09:03:05;10.60;;;2.87;;
7045;SDS011;3564;53.326;10.356;2024-03-17T09:05:33;5.60;;;2.60;;
7045;SDS011;3564;53.326;10.356;2024-03-17T09:07:59;7.53;;;2.90;;
7045;SDS011;3564;53.326;10.356;2024-03-17T09:10:25;9.77;;;2.37;;
7045;SDS011;3564;53.326;10.356;2024-03-17T09:12:51;9.83;;;2.97;;
7045;SDS011;3564;53.326;10.356;2024-03-17T09:15:17;7.20;;;2.80;;
7045;SDS011;3564;53.326;10.356;2024-03-17T09:17:42;7.63;;;2.80;;
7045;SDS011;3564;53.326;10.356;2024-03-17T09:20:09;5.27;;;2.23;;
7045;SDS011;3564;53.326;10.356;2024-03-17T09:22:38;10.53;;;2.80;;
7045;SDS011;3564;53.326;10.356;2024-03-17T09:25:10;9.17;;;2.33;;
7045;SDS011;3564;53.326;10.356;2024-03-17T09:27:36;6.97;;;2.13;;
7045;SDS011;3564;53.326;10.356;2024-03-17T09:30:04;4.73;;;2.00;;
7045;SDS011;3564;53.326;10.356;2024-03-17T09:32:34;6.53;;;2.00;;
7045;SDS011;3564;53.326;10.356;2024-03-17T09:35:03;8.67;;;1.90;;
7045;SDS011;3564;53.326;10.356;2024-03-17T09:37:31;7.50;;;2.27;;
7045;SDS011;3564;53.326;10.356;2024-03-17T09:39:57;5.87;;;1.87;;
7045;SDS011;3564;53.326;10.356;2024-03-17T09:42:25;6.80;;;1.70;;
7045;SDS011;3564;53.326;10.356;2024-03-17T09:44:52;5.57;;;1.90;;
7045;SDS011;3564;53.326;10.356;2024-03-17T09:47:21;6.33;;;1.90;;
7045;SDS011;3564;53.326;10.356;2024-03-17T09:49:48;5.10;;;1.53;;
7045;SDS011;3564;53.326;10.356;2024-03-17T09:52:25;7.47;;;2.20;;
7045;SDS011;3564;53.326;10.356;2024-03-17T09:55:01;7.53;;;2.10;;
7045;SDS011;3564;53.326;10.356;2024-03-17T09:57:34;5.93;;;1.80;;
7045;SDS011;3564;53.326;10.356;2024-03-17T10:00:09;6.73;;;1.87;;
7045;SDS011;3564;53.326;10.356;2024-03-17T10:02:47;3.20;;;1.60;;
7045;SDS011;3564;53.326;10.356;2024-03-17T10:05:23;6.23;;;2.30;;
7045;SDS011;3564;53.326;10.356;2024-03-17T10:07:50;5.97;;;1.90;;
7045;SDS011;3564;53.326;10.356;2024-03-17T10:10:18;4.57;;;1.83;;
7045;SDS011;3564;53.326;10.356;2024-03-17T10:12:49;6.67;;;1.93;;
7045;SDS011;3564;53.326;10.356;2024-03-17T10:15:18;9.60;;;2.23;;
7045;SDS011;3564;53.326;10.356;2024-03-17T10:17:45;5.33;;;1.90;;
7045;SDS011;3564;53.326;10.356;2024-03-17T10:20:17;8.37;;;1.90;;
7045;SDS011;3564;53.326;10.356;2024-03-17T10:25:30;6.20;;;1.90;;
7045;SDS011;3564;53.326;10.356;2024-03-17T10:27:57;8.90;;;2.00;;
7045;SDS011;3564;53.326;10.356;2024-03-17T10:30:24;5.57;;;1.90;;
7045;SDS011;3564;53.326;10.356;2024-03-17T10:32:52;6.03;;;1.60;;
7045;SDS011;3564;53.326;10.356;2024-03-17T10:35:28;4.03;;;1.80;;
7045;SDS011;3564;53.326;10.356;2024-03-17T10:38:05;5.13;;;2.00;;
7045;SDS011;3564;53.326;10.356;2024-03-17T10:40:31;6.77;;;1.87;;
7045;SDS011;3564;53.326;10.356;2024-03-17T10:43:01;5.03;;;1.63;;
7045;SDS011;3564;53.326;10.356;2024-03-17T10:45:27;2.90;;;1.87;;
7045;SDS011;3564;53.326;10.356;2024-03-17T10:48:03;8.90;;;2.40;;
7045;SDS011;3564;53.326;10.356;2024-03-17T10:50:36;7.90;;;2.27;;
7045;SDS011;3564;53.326;10.356;2024-03-17T10:53:04;4.17;;;1.90;;
7045;SDS011;3564;53.326;10.356;2024-03-17T10:55:45;8.30;;;2.03;;
7045;SDS011;3564;53.326;10.356;2024-03-17T10:58:33;9.40;;;2.30;;
7045;SDS011;3564;53.326;10.356;2024-03-17T11:01:03;6.90;;;2.30;;
7045;SDS011;3564;53.326;10.356;2024-03-17T11:03:31;4.77;;;1.83;;
7045;SDS011;3564;53.326;10.356;2024-03-17T11:05:57;7.87;;;2.07;;
7045;SDS011;3564;53.326;10.356;2024-03-17T11:08:25;7.63;;;2.10;;
7045;SDS011;3564;53.326;10.356;2024-03-17T11:10:52;5.97;;;1.93;;
7045;SDS011;3564;53.326;10.356;2024-03-17T11:15:50;5.13;;;1.93;;
7045;SDS011;3564;53.326;10.356;2024-03-17T11:21:05;4.07;;;1.93;;
7045;SDS011;3564;53.326;10.356;2024-03-17T11:23:34;6.63;;;2.30;;
7045;SDS011;3564;53.326;10.356;2024-03-17T11:26:02;3.57;;;1.67;;
7045;SDS011;3564;53.326;10.356;2024-03-17T11:34:26;6.33;;;2.43;;
7045;SDS011;3564;53.326;10.356;2024-03-17T11:36:54;9.37;;;2.43;;
7045;SDS011;3564;53.326;10.356;2024-03-17T11:39:21;8.40;;;2.20;;
7045;SDS011;3564;53.326;10.356;2024-03-17T11:42:06;5.63;;;2.17;;
7045;SDS011;3564;53.326;10.356;2024-03-17T11:44:41;5.13;;;2.40;;
7045;SDS011;3564;53.326;10.356;2024-03-17T11:47:08;5.53;;;2.00;;
7045;SDS011;3564;53.326;10.356;2024-03-17T11:49:34;3.57;;;2.40;;
7045;SDS011;3564;53.326;10.356;2024-03-17T11:52:11;5.50;;;2.13;;
7045;SDS011;3564;53.326;10.356;2024-03-17T11:54:41;6.33;;;2.17;;
7045;SDS011;3564;53.326;10.356;2024-03-17T11:57:11;7.23;;;2.53;;
7045;SDS011;3564;53.326;10.356;2024-03-17T11:59:44;5.93;;;1.80;;
7045;SDS011;3564;53.326;10.356;2024-03-17T12:02:20;7.10;;;2.37;;
7045;SDS011;3564;53.326;10.356;2024-03-17T12:04:50;7.27;;;2.20;;
7045;SDS011;3564;53.326;10.356;2024-03-17T12:07:22;4.40;;;1.87;;
7045;SDS011;3564;53.326;10.356;2024-03-17T12:09:48;5.47;;;1.63;;
7045;SDS011;3564;53.326;10.356;2024-03-17T12:12:25;5.17;;;1.90;;
7045;SDS011;3564;53.326;10.356;2024-03-17T12:15:01;5.10;;;2.10;;
7045;SDS011;3564;53.326;10.356;2024-03-17T12:17:30;6.27;;;2.10;;
7045;SDS011;3564;53.326;10.356;2024-03-17T12:19:56;5.43;;;1.70;;
7045;SDS011;3564;53.326;10.356;2024-03-17T12:22:23;4.17;;;1.93;;
7045;SDS011;3564;53.326;10.356;2024-03-17T12:24:53;6.03;;;1.97;;
7045;SDS011;3564;53.326;10.356;2024-03-17T12:27:20;6.10;;;2.03;;
7045;SDS011;3564;53.326;10.356;2024-03-17T12:29:47;5.07;;;2.10;;
7045;SDS011;3564;53.326;10.356;2024-03-17T12:32:23;5.63;;;2.00;;
7045;SDS011;3564;53.326;10.356;2024-03-17T12:34:50;6.33;;;1.80;;
7045;SDS011;3564;53.326;10.356;2024-03-17T12:37:23;4.87;;;1.73;;
7045;SDS011;3564;53.326;10.356;2024-03-17T12:39:59;2.80;;;1.70;;
7045;SDS011;3564;53.326;10.356;2024-03-17T12:42:28;4.37;;;1.77;;
7045;SDS011;3564;53.326;10.356;2024-03-17T12:44:58;6.93;;;1.80;;
7045;SDS011;3564;53.326;10.356;2024-03-17T12:47:26;7.03;;;2.10;;
7045;SDS011;3564;53.326;10.356;2024-03-17T12:49:57;6.87;;;1.90;;
7045;SDS011;3564;53.326;10.356;2024-03-17T12:52:24;5.77;;;2.03;;
7045;SDS011;3564;53.326;10.356;2024-03-17T12:55:09;4.17;;;1.80;;
7045;SDS011;3564;53.326;10.356;2024-03-17T13:00:45;4.90;;;1.90;;
7045;SDS011;3564;53.326;10.356;2024-03-17T13:03:21;5.73;;;2.33;;
7045;SDS011;3564;53.326;10.356;2024-03-17T13:06:20;5.50;;;2.00;;
7045;SDS011;3564;53.326;10.356;2024-03-17T13:08:51;5.03;;;2.03;;
7045;SDS011;3564;53.326;10.356;2024-03-17T13:11:17;10.10;;;1.83;;
7045;SDS011;3564;53.326;10.356;2024-03-17T13:13:42;7.00;;;1.97;;
7045;SDS011;3564;53.326;10.356;2024-03-17T13:16:08;5.47;;;1.80;;
7045;SDS011;3564;53.326;10.356;2024-03-17T13:18:37;7.77;;;1.83;;
7045;SDS011;3564;53.326;10.356;2024-03-17T13:21:03;4.10;;;1.90;;
7045;SDS011;3564;53.326;10.356;2024-03-17T13:23:29;5.93;;;2.10;;
7045;SDS011;3564;53.326;10.356;2024-03-17T13:25:55;5.53;;;1.80;;
7045;SDS011;3564;53.326;10.356;2024-03-17T13:28:20;3.57;;;1.90;;
7045;SDS011;3564;53.326;10.356;2024-03-17T13:30:46;4.70;;;2.33;;
7045;SDS011;3564;53.326;10.356;2024-03-17T13:33:13;7.97;;;1.90;;
7045;SDS011;3564;53.326;10.356;2024-03-17T13:35:41;6.37;;;1.87;;
7045;SDS011;3564;53.326;10.356;2024-03-17T13:38:06;7.37;;;2.20;;
7045;SDS011;3564;53.326;10.356;2024-03-17T13:40:34;5.07;;;2.27;;
7045;SDS011;3564;53.326;10.356;2024-03-17T13:43:00;4.23;;;1.80;;
7045;SDS011;3564;53.326;10.356;2024-03-17T13:45:27;4.23;;;1.57;;
7045;SDS011;3564;53.326;10.356;2024-03-17T13:47:56;9.03;;;2.10;;
7045;SDS011;3564;53.326;10.356;2024-03-17T13:50:23;4.93;;;2.17;;
7045;SDS011;3564;53.326;10.356;2024-03-17T13:52:49;3.83;;;1.70;;
7045;SDS011;3564;53.326;10.356;2024-03-17T13:55:22;6.13;;;2.23;;
7045;SDS011;3564;53.326;10.356;2024-03-17T13:57:53;4.87;;;1.77;;
7045;SDS011;3564;53.326;10.356;2024-03-17T14:00:20;4.23;;;1.83;;
7045;SDS011;3564;53.326;10.356;2024-03-17T14:02:48;5.40;;;2.13;;
7045;SDS011;3564;53.326;10.356;2024-03-17T14:05:15;3.27;;;1.83;;
7045;SDS011;3564;53.326;10.356;2024-03-17T14:07:42;4.77;;;1.63;;
7045;SDS011;3564;53.326;10.356;2024-03-17T14:10:09;5.30;;;1.80;;
7045;SDS011;3564;53.326;10.356;2024-03-17T14:12:37;6.73;;;2.20;;
7045;SDS011;3564;53.326;10.356;2024-03-17T14:15:07;6.53;;;2.20;;
7045;SDS011;3564;53.326;10.356;2024-03-17T14:17:36;7.30;;;2.00;;
7045;SDS011;3564;53.326;10.356;2024-03-17T14:20:02;5.73;;;1.80;;
7045;SDS011;3564;53.326;10.356;2024-03-17T14:22:28;6.53;;;2.17;;
7045;SDS011;3564;53.326;10.356;2024-03-17T14:24:54;4.87;;;1.97;;
7045;SDS011;3564;53.326;10.356;2024-03-17T14:27:20;6.60;;;2.33;;
7045;SDS011;3564;53.326;10.356;2024-03-17T14:29:46;9.00;;;2.53;;
7045;SDS011;3564;53.326;10.356;2024-03-17T14:32:12;7.57;;;2.40;;
7045;SDS011;3564;53.326;10.356;2024-03-17T14:34:39;6.17;;;1.90;;
7045;SDS011;3564;53.326;10.356;2024-03-17T14:37:05;8.73;;;2.50;;
7045;SDS011;3564;53.326;10.356;2024-03-17T14:39:31;6.60;;;1.80;;
7045;SDS011;3564;53.326;10.356;2024-03-17T14:41:57;8.70;;;2.30;;
7045;SDS011;3564;53.326;10.356;2024-03-17T14:44:23;8.50;;;2.00;;
7045;SDS011;3564;53.326;10.356;2024-03-17T14:46:49;5.17;;;1.83;;
7045;SDS011;3564;53.326;10.356;2024-03-17T14:49:19;9.37;;;2.10;;
7045;SDS011;3564;53.326;10.356;2024-03-17T14:51:46;8.27;;;2.47;;
7045;SDS011;3564;53.326;10.356;2024-03-17T14:54:13;9.43;;;2.43;;
7045;SDS011;3564;53.326;10.356;2024-03-17T14:56:38;5.53;;;2.13;;
7045;SDS011;3564;53.326;10.356;2024-03-17T14:59:07;6.73;;;2.10;;
7045;SDS011;3564;53.326;10.356;2024-03-17T15:01:33;6.43;;;2.30;;
7045;SDS011;3564;53.326;10.356;2024-03-17T15:03:59;4.67;;;2.03;;
7045;SDS011;3564;53.326;10.356;2024-03-17T15:06:25;6.13;;;2.30;;
7045;SDS011;3564;53.326;10.356;2024-03-17T15:08:52;6.83;;;2.07;;
7045;SDS011;3564;53.326;10.356;2024-03-17T15:11:18;7.20;;;1.90;;
7045;SDS011;3564;53.326;10.356;2024-03-17T15:13:43;5.90;;;2.00;;
7045;SDS011;3564;53.326;10.356;2024-03-17T15:16:10;10.60;;;2.33;;
7045;SDS011;3564;53.326;10.356;2024-03-17T15:18:35;9.43;;;2.00;;
7045;SDS011;3564;53.326;10.356;2024-03-17T15:21:02;6.13;;;2.10;;
7045;SDS011;3564;53.326;10.356;2024-03-17T15:23:30;5.83;;;2.13;;